sensor_id;sensor_type;location;lat;lon;timestamp;temperature;humidity
75321;DHT22;68337;52.196;5.660;2023-05-14T00:01:12;12.80;99.90
75321;DHT22;68337;52.196;5.660;2023-05-14T00:03:37;12.80;99.90
75321;DHT22;68337;52.196;5.660;2023-05-14T00:06:05;12.80;99.90
75321;DHT22;68337;52.196;5.660;2023-05-14T00:08:31;12.80;99.90
75321;DHT22;68337;52.196;5.660;2023-05-14T00:10:57;12.80;99.90
75321;DHT22;68337;52.196;5.660;2023-05-14T00:13:24;12.80;99.90
75321;DHT22;68337;52.196;5.660;2023-05-14T00:15:49;12.70;99.90
75321;DHT22;68337;52.196;5.660;2023-05-14T00:18:15;12.70;99.90
75321;DHT22;68337;52.196;5.660;2023-05-14T00:20:40;12.70;99.90
75321;DHT22;68337;52.196;5.660;2023-05-14T00:23:06;12.70;99.90
75321;DHT22;68337;52.196;5.660;2023-05-14T00:25:32;12.70;99.90
75321;DHT22;68337;52.196;5.660;2023-05-14T00:27:57;12.70;99.90
75321;DHT22;68337;52.196;5.660;2023-05-14T00:30:23;12.60;99.90
75321;DHT22;68337;52.196;5.660;2023-05-14T00:32:49;12.60;99.90
75321;DHT22;68337;52.196;5.660;2023-05-14T00:35:14;12.50;99.90
75321;DHT22;68337;52.196;5.660;2023-05-14T00:37:40;12.40;99.90
75321;DHT22;68337;52.196;5.660;2023-05-14T00:40:06;12.40;99.90
75321;DHT22;68337;52.196;5.660;2023-05-14T00:42:33;12.40;99.90
75321;DHT22;68337;52.196;5.660;2023-05-14T00:44:58;12.40;99.90
75321;DHT22;68337;52.196;5.660;2023-05-14T00:47:24;12.30;99.90
75321;DHT22;68337;52.196;5.660;2023-05-14T00:49:50;12.30;99.90
75321;DHT22;68337;52.196;5.660;2023-05-14T00:52:16;12.30;99.90
75321;DHT22;68337;52.196;5.660;2023-05-14T00:54:44;12.20;99.90
75321;DHT22;68337;52.196;5.660;2023-05-14T00:57:11;12.20;99.90
75321;DHT22;68337;52.196;5.660;2023-05-14T00:59:36;12.20;99.90
75321;DHT22;68337;52.196;5.660;2023-05-14T01:02:05;12.20;99.90
75321;DHT22;68337;52.196;5.660;2023-05-14T01:04:31;12.10;99.90
75321;DHT22;68337;52.196;5.660;2023-05-14T01:10:01;12.10;99.90
75321;DHT22;68337;52.196;5.660;2023-05-14T01:15:14;12.00;99.90
75321;DHT22;68337;52.196;5.660;2023-05-14T01:17:47;12.00;99.90
75321;DHT22;68337;52.196;5.660;2023-05-14T01:20:15;11.90;99.90
75321;DHT22;68337;52.196;5.660;2023-05-14T01:22:40;11.90;99.90
75321;DHT22;68337;52.196;5.660;2023-05-14T01:25:07;11.90;99.90
75321;DHT22;68337;52.196;5.660;2023-05-14T01:28:10;11.80;99.90
75321;DHT22;68337;52.196;5.660;2023-05-14T01:30:48;11.90;99.90
75321;DHT22;68337;52.196;5.660;2023-05-14T01:33:17;11.80;99.90
75321;DHT22;68337;52.196;5.660;2023-05-14T01:35:43;11.80;99.90
75321;DHT22;68337;52.196;5.660;2023-05-14T01:38:14;11.80;99.90
75321;DHT22;68337;52.196;5.660;2023-05-14T01:40:41;11.70;99.90
75321;DHT22;68337;52.196;5.660;2023-05-14T01:43:09;11.70;99.90
75321;DHT22;68337;52.196;5.660;2023-05-14T01:45:36;11.70;99.90
75321;DHT22;68337;52.196;5.660;2023-05-14T01:48:03;11.70;99.90
75321;DHT22;68337;52.196;5.660;2023-05-14T01:50:29;11.60;99.90
75321;DHT22;68337;52.196;5.660;2023-05-14T01:52:55;11.60;99.90
75321;DHT22;68337;52.196;5.660;2023-05-14T01:55:21;11.50;99.90
75321;DHT22;68337;52.196;5.660;2023-05-14T01:57:52;11.60;99.90
75321;DHT22;68337;52.196;5.660;2023-05-14T02:00:18;11.50;99.90
75321;DHT22;68337;52.196;5.660;2023-05-14T02:02:44;11.50;99.90
75321;DHT22;68337;52.196;5.660;2023-05-14T02:05:11;11.40;99.90
75321;DHT22;68337;52.196;5.660;2023-05-14T02:07:37;11.40;99.90
75321;DHT22;68337;52.196;5.660;2023-05-14T02:10:02;11.40;99.90
75321;DHT22;68337;52.196;5.660;2023-05-14T02:12:28;11.30;99.90
75321;DHT22;68337;52.196;5.660;2023-05-14T02:14:54;11.30;99.90
75321;DHT22;68337;52.196;5.660;2023-05-14T02:17:20;11.30;99.90
75321;DHT22;68337;52.196;5.660;2023-05-14T02:19:45;11.30;99.90
75321;DHT22;68337;52.196;5.660;2023-05-14T02:22:11;11.20;99.90
75321;DHT22;68337;52.196;5.660;2023-05-14T02:24:37;11.20;99.90
75321;DHT22;68337;52.196;5.660;2023-05-14T02:27:03;11.20;99.90
75321;DHT22;68337;52.196;5.660;2023-05-14T02:29:28;11.10;99.90
75321;DHT22;68337;52.196;5.660;2023-05-14T02:31:55;11.10;99.90
75321;DHT22;68337;52.196;5.660;2023-05-14T02:34:20;11.00;99.90
75321;DHT22;68337;52.196;5.660;2023-05-14T02:36:46;10.90;99.90
75321;DHT22;68337;52.196;5.660;2023-05-14T02:39:11;10.90;99.90
75321;DHT22;68337;52.196;5.660;2023-05-14T02:41:37;10.90;99.90
75321;DHT22;68337;52.196;5.660;2023-05-14T02:44:03;10.80;99.90
75321;DHT22;68337;52.196;5.660;2023-05-14T02:46:30;10.80;99.90
75321;DHT22;68337;52.196;5.660;2023-05-14T02:48:56;10.80;99.90
75321;DHT22;68337;52.196;5.660;2023-05-14T02:51:22;10.80;99.90
75321;DHT22;68337;52.196;5.660;2023-05-14T02:53:47;10.70;99.90
75321;DHT22;68337;52.196;5.660;2023-05-14T02:56:13;10.70;99.90
75321;DHT22;68337;52.196;5.660;2023-05-14T02:58:39;10.60;99.90
75321;DHT22;68337;52.196;5.660;2023-05-14T03:01:04;10.60;99.90
75321;DHT22;68337;52.196;5.660;2023-05-14T03:03:30;10.60;99.90
75321;DHT22;68337;52.196;5.660;2023-05-14T03:05:56;10.60;99.90
75321;DHT22;68337;52.196;5.660;2023-05-14T03:08:21;10.50;99.90
75321;DHT22;68337;52.196;5.660;2023-05-14T03:10:47;10.50;99.90
75321;DHT22;68337;52.196;5.660;2023-05-14T03:13:13;10.50;99.90
75321;DHT22;68337;52.196;5.660;2023-05-14T03:15:42;10.50;99.90
75321;DHT22;68337;52.196;5.660;2023-05-14T03:18:08;10.40;99.90
75321;DHT22;68337;52.196;5.660;2023-05-14T03:20:34;10.40;99.90
75321;DHT22;68337;52.196;5.660;2023-05-14T03:22:59;10.30;99.90
75321;DHT22;68337;52.196;5.660;2023-05-14T03:25:25;10.30;99.90
75321;DHT22;68337;52.196;5.660;2023-05-14T03:27:51;10.30;99.90
75321;DHT22;68337;52.196;5.660;2023-05-14T03:30:16;10.30;99.90
75321;DHT22;68337;52.196;5.660;2023-05-14T03:32:42;10.30;99.90
75321;DHT22;68337;52.196;5.660;2023-05-14T03:35:08;10.20;99.90
75321;DHT22;68337;52.196;5.660;2023-05-14T03:37:33;10.20;99.90
75321;DHT22;68337;52.196;5.660;2023-05-14T03:39:59;10.20;99.90
75321;DHT22;68337;52.196;5.660;2023-05-14T03:42:25;10.20;99.90
75321;DHT22;68337;52.196;5.660;2023-05-14T03:44:51;10.20;99.90
75321;DHT22;68337;52.196;5.660;2023-05-14T03:47:17;10.20;99.90
75321;DHT22;68337;52.196;5.660;2023-05-14T03:49:42;10.20;99.90
75321;DHT22;68337;52.196;5.660;2023-05-14T03:52:08;10.20;99.90
75321;DHT22;68337;52.196;5.660;2023-05-14T03:54:33;10.20;99.90
75321;DHT22;68337;52.196;5.660;2023-05-14T03:56:59;10.20;99.90
75321;DHT22;68337;52.196;5.660;2023-05-14T03:59:26;10.20;99.90
75321;DHT22;68337;52.196;5.660;2023-05-14T04:01:51;10.20;99.90
75321;DHT22;68337;52.196;5.660;2023-05-14T04:04:17;10.20;99.90
75321;DHT22;68337;52.196;5.660;2023-05-14T04:06:43;10.10;99.90
75321;DHT22;68337;52.196;5.660;2023-05-14T04:09:09;10.20;99.90
75321;DHT22;68337;52.196;5.660;2023-05-14T04:11:35;10.10;99.90
75321;DHT22;68337;52.196;5.660;2023-05-14T04:14:01;10.20;99.90
75321;DHT22;68337;52.196;5.660;2023-05-14T04:16:27;10.20;99.90
75321;DHT22;68337;52.196;5.660;2023-05-14T04:18:52;10.20;99.90
75321;DHT22;68337;52.196;5.660;2023-05-14T04:21:18;10.20;99.90
75321;DHT22;68337;52.196;5.660;2023-05-14T04:23:44;10.20;99.90
75321;DHT22;68337;52.196;5.660;2023-05-14T04:26:09;10.20;99.90
75321;DHT22;68337;52.196;5.660;2023-05-14T04:28:35;10.20;99.90
75321;DHT22;68337;52.196;5.660;2023-05-14T04:31:00;10.20;99.90
75321;DHT22;68337;52.196;5.660;2023-05-14T04:33:26;10.30;99.90
75321;DHT22;68337;52.196;5.660;2023-05-14T04:35:52;10.30;99.90
75321;DHT22;68337;52.196;5.660;2023-05-14T04:38:18;10.30;99.90
75321;DHT22;68337;52.196;5.660;2023-05-14T04:40:43;10.30;99.90
75321;DHT22;68337;52.196;5.660;2023-05-14T04:43:09;10.40;99.90
75321;DHT22;68337;52.196;5.660;2023-05-14T04:45:35;10.40;99.90
75321;DHT22;68337;52.196;5.660;2023-05-14T04:48:02;10.50;99.90
75321;DHT22;68337;52.196;5.660;2023-05-14T04:50:28;10.40;99.90
75321;DHT22;68337;52.196;5.660;2023-05-14T04:52:54;10.50;99.90
75321;DHT22;68337;52.196;5.660;2023-05-14T04:55:20;10.50;99.90
75321;DHT22;68337;52.196;5.660;2023-05-14T04:57:46;10.60;99.90
75321;DHT22;68337;52.196;5.660;2023-05-14T05:00:12;10.60;99.90
75321;DHT22;68337;52.196;5.660;2023-05-14T05:02:38;10.70;99.90
75321;DHT22;68337;52.196;5.660;2023-05-14T05:05:03;10.80;99.90
75321;DHT22;68337;52.196;5.660;2023-05-14T05:07:29;10.80;99.90
75321;DHT22;68337;52.196;5.660;2023-05-14T05:09:55;10.90;99.90
75321;DHT22;68337;52.196;5.660;2023-05-14T05:12:20;11.00;99.90
75321;DHT22;68337;52.196;5.660;2023-05-14T05:14:47;11.20;99.90
75321;DHT22;68337;52.196;5.660;2023-05-14T05:17:13;11.30;99.90
75321;DHT22;68337;52.196;5.660;2023-05-14T05:19:38;11.40;99.90
75321;DHT22;68337;52.196;5.660;2023-05-14T05:22:04;11.60;99.90
75321;DHT22;68337;52.196;5.660;2023-05-14T05:24:30;11.60;99.90
75321;DHT22;68337;52.196;5.660;2023-05-14T05:26:56;11.80;99.90
75321;DHT22;68337;52.196;5.660;2023-05-14T05:29:22;12.00;99.90
75321;DHT22;68337;52.196;5.660;2023-05-14T05:31:48;12.00;99.90
75321;DHT22;68337;52.196;5.660;2023-05-14T05:34:13;12.00;99.90
75321;DHT22;68337;52.196;5.660;2023-05-14T05:36:39;12.00;99.90
75321;DHT22;68337;52.196;5.660;2023-05-14T05:39:05;12.20;99.90
75321;DHT22;68337;52.196;5.660;2023-05-14T05:41:31;12.20;99.90
75321;DHT22;68337;52.196;5.660;2023-05-14T05:43:56;12.20;99.90
75321;DHT22;68337;52.196;5.660;2023-05-14T05:46:22;12.30;99.90
75321;DHT22;68337;52.196;5.660;2023-05-14T05:48:48;12.30;99.90
75321;DHT22;68337;52.196;5.660;2023-05-14T05:51:13;12.30;99.90
75321;DHT22;68337;52.196;5.660;2023-05-14T05:53:39;12.50;99.90
75321;DHT22;68337;52.196;5.660;2023-05-14T05:56:05;12.30;99.90
75321;DHT22;68337;52.196;5.660;2023-05-14T05:58:31;12.40;99.90
75321;DHT22;68337;52.196;5.660;2023-05-14T06:00:57;12.50;99.90
75321;DHT22;68337;52.196;5.660;2023-05-14T06:03:23;12.60;99.90
75321;DHT22;68337;52.196;5.660;2023-05-14T06:05:49;12.70;99.90
75321;DHT22;68337;52.196;5.660;2023-05-14T06:08:15;12.70;99.90
75321;DHT22;68337;52.196;5.660;2023-05-14T06:10:41;12.90;99.90
75321;DHT22;68337;52.196;5.660;2023-05-14T06:13:06;13.00;99.90
75321;DHT22;68337;52.196;5.660;2023-05-14T06:15:32;13.10;99.90
75321;DHT22;68337;52.196;5.660;2023-05-14T06:17:58;13.30;99.90
75321;DHT22;68337;52.196;5.660;2023-05-14T06:20:23;13.30;99.90
75321;DHT22;68337;52.196;5.660;2023-05-14T06:22:49;13.60;99.90
75321;DHT22;68337;52.196;5.660;2023-05-14T06:25:14;13.50;99.90
75321;DHT22;68337;52.196;5.660;2023-05-14T06:27:41;13.50;99.90
75321;DHT22;68337;52.196;5.660;2023-05-14T06:30:07;13.60;99.90
75321;DHT22;68337;52.196;5.660;2023-05-14T06:32:33;13.60;99.90
75321;DHT22;68337;52.196;5.660;2023-05-14T06:34:59;13.80;99.90
75321;DHT22;68337;52.196;5.660;2023-05-14T06:37:24;13.90;99.90
75321;DHT22;68337;52.196;5.660;2023-05-14T06:39:50;13.90;99.90
75321;DHT22;68337;52.196;5.660;2023-05-14T06:42:16;13.90;99.90
75321;DHT22;68337;52.196;5.660;2023-05-14T06:44:42;14.10;99.90
75321;DHT22;68337;52.196;5.660;2023-05-14T06:47:08;14.20;99.90
75321;DHT22;68337;52.196;5.660;2023-05-14T06:49:34;14.30;99.90
75321;DHT22;68337;52.196;5.660;2023-05-14T06:52:00;14.30;99.90
75321;DHT22;68337;52.196;5.660;2023-05-14T06:54:25;14.30;99.90
75321;DHT22;68337;52.196;5.660;2023-05-14T06:56:51;14.50;99.90
75321;DHT22;68337;52.196;5.660;2023-05-14T06:59:16;14.60;99.90
75321;DHT22;68337;52.196;5.660;2023-05-14T07:01:42;14.60;99.90
75321;DHT22;68337;52.196;5.660;2023-05-14T07:04:08;14.90;99.90
75321;DHT22;68337;52.196;5.660;2023-05-14T07:06:33;14.90;99.90
75321;DHT22;68337;52.196;5.660;2023-05-14T07:09:00;14.90;99.90
75321;DHT22;68337;52.196;5.660;2023-05-14T07:11:26;15.30;99.90
75321;DHT22;68337;52.196;5.660;2023-05-14T07:13:51;15.40;99.90
75321;DHT22;68337;52.196;5.660;2023-05-14T07:16:17;15.40;99.90
75321;DHT22;68337;52.196;5.660;2023-05-14T07:18:44;15.50;99.90
75321;DHT22;68337;52.196;5.660;2023-05-14T07:21:10;15.60;99.90
75321;DHT22;68337;52.196;5.660;2023-05-14T07:23:36;15.90;99.90
75321;DHT22;68337;52.196;5.660;2023-05-14T07:26:05;16.20;99.90
75321;DHT22;68337;52.196;5.660;2023-05-14T07:28:32;16.50;99.90
75321;DHT22;68337;52.196;5.660;2023-05-14T07:30:58;16.70;99.90
75321;DHT22;68337;52.196;5.660;2023-05-14T07:33:24;17.00;99.90
75321;DHT22;68337;52.196;5.660;2023-05-14T07:35:50;17.20;99.90
75321;DHT22;68337;52.196;5.660;2023-05-14T07:38:16;17.10;99.90
75321;DHT22;68337;52.196;5.660;2023-05-14T07:40:42;17.40;99.90
75321;DHT22;68337;52.196;5.660;2023-05-14T07:43:08;17.50;99.90
75321;DHT22;68337;52.196;5.660;2023-05-14T07:45:36;17.60;99.90
75321;DHT22;68337;52.196;5.660;2023-05-14T07:48:02;17.70;99.90
75321;DHT22;68337;52.196;5.660;2023-05-14T07:50:28;17.70;99.90
75321;DHT22;68337;52.196;5.660;2023-05-14T07:52:54;18.10;99.90
75321;DHT22;68337;52.196;5.660;2023-05-14T07:55:20;18.20;99.90
75321;DHT22;68337;52.196;5.660;2023-05-14T07:57:46;18.20;99.90
75321;DHT22;68337;52.196;5.660;2023-05-14T08:00:12;18.50;99.90
75321;DHT22;68337;52.196;5.660;2023-05-14T08:02:38;18.70;99.90
75321;DHT22;68337;52.196;5.660;2023-05-14T08:05:03;18.60;99.90
75321;DHT22;68337;52.196;5.660;2023-05-14T08:07:29;18.80;99.90
75321;DHT22;68337;52.196;5.660;2023-05-14T08:09:55;18.70;99.90
75321;DHT22;68337;52.196;5.660;2023-05-14T08:12:21;18.60;99.90
75321;DHT22;68337;52.196;5.660;2023-05-14T08:14:47;18.80;99.90
75321;DHT22;68337;52.196;5.660;2023-05-14T08:17:13;18.60;99.90
75321;DHT22;68337;52.196;5.660;2023-05-14T08:19:38;18.50;99.90
75321;DHT22;68337;52.196;5.660;2023-05-14T08:22:04;18.60;99.90
75321;DHT22;68337;52.196;5.660;2023-05-14T08:24:30;18.50;99.90
75321;DHT22;68337;52.196;5.660;2023-05-14T08:26:56;18.40;99.90
75321;DHT22;68337;52.196;5.660;2023-05-14T08:29:22;18.60;99.90
75321;DHT22;68337;52.196;5.660;2023-05-14T08:31:48;18.70;99.90
75321;DHT22;68337;52.196;5.660;2023-05-14T08:34:14;18.40;99.90
75321;DHT22;68337;52.196;5.660;2023-05-14T08:36:42;18.40;99.90
75321;DHT22;68337;52.196;5.660;2023-05-14T08:39:08;18.90;99.90
75321;DHT22;68337;52.196;5.660;2023-05-14T08:41:34;19.20;99.90
75321;DHT22;68337;52.196;5.660;2023-05-14T08:44:10;19.50;99.90
75321;DHT22;68337;52.196;5.660;2023-05-14T08:46:37;19.80;99.90
75321;DHT22;68337;52.196;5.660;2023-05-14T08:49:41;20.30;99.90
75321;DHT22;68337;52.196;5.660;2023-05-14T08:52:08;20.50;99.90
75321;DHT22;68337;52.196;5.660;2023-05-14T08:54:34;20.40;99.90
75321;DHT22;68337;52.196;5.660;2023-05-14T08:57:01;20.30;99.90
75321;DHT22;68337;52.196;5.660;2023-05-14T08:59:27;20.40;99.90
75321;DHT22;68337;52.196;5.660;2023-05-14T09:01:53;20.40;99.90
75321;DHT22;68337;52.196;5.660;2023-05-14T09:04:22;20.50;99.90
75321;DHT22;68337;52.196;5.660;2023-05-14T09:06:52;20.70;99.90
75321;DHT22;68337;52.196;5.660;2023-05-14T09:09:18;20.90;99.90
75321;DHT22;68337;52.196;5.660;2023-05-14T09:11:51;20.90;99.90
75321;DHT22;68337;52.196;5.660;2023-05-14T09:14:18;21.00;99.90
75321;DHT22;68337;52.196;5.660;2023-05-14T09:16:45;21.20;99.90
75321;DHT22;68337;52.196;5.660;2023-05-14T09:19:11;21.10;99.90
75321;DHT22;68337;52.196;5.660;2023-05-14T09:21:37;21.00;99.90
75321;DHT22;68337;52.196;5.660;2023-05-14T09:24:07;21.10;99.90
75321;DHT22;68337;52.196;5.660;2023-05-14T09:26:34;21.30;99.90
75321;DHT22;68337;52.196;5.660;2023-05-14T09:29:01;21.50;99.90
75321;DHT22;68337;52.196;5.660;2023-05-14T09:31:31;21.60;99.90
75321;DHT22;68337;52.196;5.660;2023-05-14T09:33:58;21.80;99.90
75321;DHT22;68337;52.196;5.660;2023-05-14T09:36:24;21.70;99.90
75321;DHT22;68337;52.196;5.660;2023-05-14T09:38:52;21.90;99.90
75321;DHT22;68337;52.196;5.660;2023-05-14T09:41:17;22.00;99.90
75321;DHT22;68337;52.196;5.660;2023-05-14T09:43:43;22.00;99.90
75321;DHT22;68337;52.196;5.660;2023-05-14T09:46:09;22.50;99.90
75321;DHT22;68337;52.196;5.660;2023-05-14T09:48:35;22.30;99.90
75321;DHT22;68337;52.196;5.660;2023-05-14T09:51:00;22.40;99.90
75321;DHT22;68337;52.196;5.660;2023-05-14T09:53:26;22.80;99.90
75321;DHT22;68337;52.196;5.660;2023-05-14T09:55:52;22.50;99.90
75321;DHT22;68337;52.196;5.660;2023-05-14T09:58:18;22.30;99.90
75321;DHT22;68337;52.196;5.660;2023-05-14T10:00:45;22.30;99.90
75321;DHT22;68337;52.196;5.660;2023-05-14T10:03:13;22.90;99.90
75321;DHT22;68337;52.196;5.660;2023-05-14T10:05:40;23.50;99.90
75321;DHT22;68337;52.196;5.660;2023-05-14T10:08:29;23.70;99.90
75321;DHT22;68337;52.196;5.660;2023-05-14T10:10:58;23.70;99.90
75321;DHT22;68337;52.196;5.660;2023-05-14T10:13:35;23.90;99.50
75321;DHT22;68337;52.196;5.660;2023-05-14T10:16:18;23.80;99.90
75321;DHT22;68337;52.196;5.660;2023-05-14T10:18:47;24.00;98.40
75321;DHT22;68337;52.196;5.660;2023-05-14T10:21:19;24.20;97.80
75321;DHT22;68337;52.196;5.660;2023-05-14T10:23:46;24.80;93.10
75321;DHT22;68337;52.196;5.660;2023-05-14T10:26:13;25.50;88.40
75321;DHT22;68337;52.196;5.660;2023-05-14T10:28:39;25.60;79.70
75321;DHT22;68337;52.196;5.660;2023-05-14T10:31:08;25.30;80.50
75321;DHT22;68337;52.196;5.660;2023-05-14T10:33:48;25.60;70.80
75321;DHT22;68337;52.196;5.660;2023-05-14T10:36:19;25.70;81.90
75321;DHT22;68337;52.196;5.660;2023-05-14T10:38:46;25.80;96.60
75321;DHT22;68337;52.196;5.660;2023-05-14T10:41:19;25.90;88.70
75321;DHT22;68337;52.196;5.660;2023-05-14T10:43:46;25.60;84.70
75321;DHT22;68337;52.196;5.660;2023-05-14T10:46:13;25.40;99.90
75321;DHT22;68337;52.196;5.660;2023-05-14T10:48:41;25.40;99.90
75321;DHT22;68337;52.196;5.660;2023-05-14T10:51:11;25.10;99.90
75321;DHT22;68337;52.196;5.660;2023-05-14T10:53:38;25.00;99.90
75321;DHT22;68337;52.196;5.660;2023-05-14T10:56:09;24.40;99.90
75321;DHT22;68337;52.196;5.660;2023-05-14T10:58:41;23.80;99.90
75321;DHT22;68337;52.196;5.660;2023-05-14T11:01:10;24.10;99.90
75321;DHT22;68337;52.196;5.660;2023-05-14T11:03:41;24.40;99.90
75321;DHT22;68337;52.196;5.660;2023-05-14T11:06:09;24.70;99.90
75321;DHT22;68337;52.196;5.660;2023-05-14T11:08:36;24.90;99.90
75321;DHT22;68337;52.196;5.660;2023-05-14T11:11:01;25.30;99.90
75321;DHT22;68337;52.196;5.660;2023-05-14T11:13:27;25.20;99.90
75321;DHT22;68337;52.196;5.660;2023-05-14T11:15:54;24.60;99.90
75321;DHT22;68337;52.196;5.660;2023-05-14T11:18:31;24.60;99.90
75321;DHT22;68337;52.196;5.660;2023-05-14T11:21:05;25.10;99.90
75321;DHT22;68337;52.196;5.660;2023-05-14T11:23:30;25.50;99.90
75321;DHT22;68337;52.196;5.660;2023-05-14T11:25:57;25.40;99.90
75321;DHT22;68337;52.196;5.660;2023-05-14T11:28:24;25.20;99.90
75321;DHT22;68337;52.196;5.660;2023-05-14T11:30:51;25.00;99.90
75321;DHT22;68337;52.196;5.660;2023-05-14T11:33:18;24.70;99.90
75321;DHT22;68337;52.196;5.660;2023-05-14T11:35:44;25.40;99.90
75321;DHT22;68337;52.196;5.660;2023-05-14T11:38:20;25.30;99.90
75321;DHT22;68337;52.196;5.660;2023-05-14T11:40:56;24.90;99.90
75321;DHT22;68337;52.196;5.660;2023-05-14T11:43:22;24.60;99.90
75321;DHT22;68337;52.196;5.660;2023-05-14T11:45:52;24.70;99.90
75321;DHT22;68337;52.196;5.660;2023-05-14T11:48:19;24.40;99.90
75321;DHT22;68337;52.196;5.660;2023-05-14T11:50:50;24.30;99.90
75321;DHT22;68337;52.196;5.660;2023-05-14T11:53:26;24.70;99.90
75321;DHT22;68337;52.196;5.660;2023-05-14T11:55:53;24.40;99.90
75321;DHT22;68337;52.196;5.660;2023-05-14T11:58:20;24.00;99.90
75321;DHT22;68337;52.196;5.660;2023-05-14T12:00:49;24.00;99.90
75321;DHT22;68337;52.196;5.660;2023-05-14T12:03:15;24.10;99.90
75321;DHT22;68337;52.196;5.660;2023-05-14T12:05:54;24.60;99.90
75321;DHT22;68337;52.196;5.660;2023-05-14T12:08:30;24.40;99.90
75321;DHT22;68337;52.196;5.660;2023-05-14T12:10:58;24.50;99.90
75321;DHT22;68337;52.196;5.660;2023-05-14T12:13:28;24.60;99.90
75321;DHT22;68337;52.196;5.660;2023-05-14T12:15:56;24.80;99.90
75321;DHT22;68337;52.196;5.660;2023-05-14T12:18:24;24.80;99.90
75321;DHT22;68337;52.196;5.660;2023-05-14T12:20:50;24.60;99.90
75321;DHT22;68337;52.196;5.660;2023-05-14T12:23:23;24.70;99.90
75321;DHT22;68337;52.196;5.660;2023-05-14T12:25:49;24.90;99.90
75321;DHT22;68337;52.196;5.660;2023-05-14T12:28:16;25.10;99.90
75321;DHT22;68337;52.196;5.660;2023-05-14T12:30:42;25.00;99.30
75321;DHT22;68337;52.196;5.660;2023-05-14T12:33:07;24.90;99.90
75321;DHT22;68337;52.196;5.660;2023-05-14T12:35:34;24.90;99.90
75321;DHT22;68337;52.196;5.660;2023-05-14T12:38:01;25.10;97.20
75321;DHT22;68337;52.196;5.660;2023-05-14T12:40:27;25.10;98.90
75321;DHT22;68337;52.196;5.660;2023-05-14T12:42:53;25.00;99.90
75321;DHT22;68337;52.196;5.660;2023-05-14T12:45:19;24.90;97.90
75321;DHT22;68337;52.196;5.660;2023-05-14T12:47:45;25.40;99.90
75321;DHT22;68337;52.196;5.660;2023-05-14T12:50:11;25.10;99.60
75321;DHT22;68337;52.196;5.660;2023-05-14T12:52:36;25.10;99.40
75321;DHT22;68337;52.196;5.660;2023-05-14T12:55:02;24.60;97.70
75321;DHT22;68337;52.196;5.660;2023-05-14T12:57:28;24.60;99.90
75321;DHT22;68337;52.196;5.660;2023-05-14T12:59:54;25.00;99.90
75321;DHT22;68337;52.196;5.660;2023-05-14T13:02:20;24.60;99.90
75321;DHT22;68337;52.196;5.660;2023-05-14T13:04:46;24.70;99.90
75321;DHT22;68337;52.196;5.660;2023-05-14T13:07:12;25.00;99.90
75321;DHT22;68337;52.196;5.660;2023-05-14T13:09:38;25.30;98.50
75321;DHT22;68337;52.196;5.660;2023-05-14T13:12:03;24.80;98.70
75321;DHT22;68337;52.196;5.660;2023-05-14T13:14:29;24.60;99.90
75321;DHT22;68337;52.196;5.660;2023-05-14T13:16:55;24.60;99.90
75321;DHT22;68337;52.196;5.660;2023-05-14T13:19:21;24.80;99.90
75321;DHT22;68337;52.196;5.660;2023-05-14T13:21:46;24.90;99.50
75321;DHT22;68337;52.196;5.660;2023-05-14T13:24:12;25.00;98.10
75321;DHT22;68337;52.196;5.660;2023-05-14T13:26:37;25.10;94.60
75321;DHT22;68337;52.196;5.660;2023-05-14T13:29:03;24.40;94.30
75321;DHT22;68337;52.196;5.660;2023-05-14T13:31:29;24.10;97.30
75321;DHT22;68337;52.196;5.660;2023-05-14T13:33:55;24.00;98.30
75321;DHT22;68337;52.196;5.660;2023-05-14T13:36:22;24.10;98.20
75321;DHT22;68337;52.196;5.660;2023-05-14T13:38:48;24.10;98.60
75321;DHT22;68337;52.196;5.660;2023-05-14T13:41:13;23.90;99.10
75321;DHT22;68337;52.196;5.660;2023-05-14T13:43:39;23.90;96.50
75321;DHT22;68337;52.196;5.660;2023-05-14T13:46:05;23.60;99.00
75321;DHT22;68337;52.196;5.660;2023-05-14T13:48:31;23.70;99.90
75321;DHT22;68337;52.196;5.660;2023-05-14T13:50:57;23.90;97.30
75321;DHT22;68337;52.196;5.660;2023-05-14T13:53:23;24.20;93.20
75321;DHT22;68337;52.196;5.660;2023-05-14T13:55:50;23.80;90.00
75321;DHT22;68337;52.196;5.660;2023-05-14T13:58:21;23.60;91.70
75321;DHT22;68337;52.196;5.660;2023-05-14T14:00:47;23.50;92.50
75321;DHT22;68337;52.196;5.660;2023-05-14T14:03:13;23.30;93.90
75321;DHT22;68337;52.196;5.660;2023-05-14T14:05:39;23.40;90.60
75321;DHT22;68337;52.196;5.660;2023-05-14T14:08:04;23.40;89.10
75321;DHT22;68337;52.196;5.660;2023-05-14T14:10:30;23.20;89.50
75321;DHT22;68337;52.196;5.660;2023-05-14T14:12:56;23.10;91.40
75321;DHT22;68337;52.196;5.660;2023-05-14T14:15:22;23.10;91.90
75321;DHT22;68337;52.196;5.660;2023-05-14T14:17:47;23.30;91.60
75321;DHT22;68337;52.196;5.660;2023-05-14T14:20:13;23.50;90.00
75321;DHT22;68337;52.196;5.660;2023-05-14T14:22:40;23.30;87.40
75321;DHT22;68337;52.196;5.660;2023-05-14T14:25:06;23.30;76.50
75321;DHT22;68337;52.196;5.660;2023-05-14T14:27:33;23.00;86.20
75321;DHT22;68337;52.196;5.660;2023-05-14T14:30:12;23.10;92.80
75321;DHT22;68337;52.196;5.660;2023-05-14T14:32:42;23.00;94.20
75321;DHT22;68337;52.196;5.660;2023-05-14T14:35:08;23.00;98.80
75321;DHT22;68337;52.196;5.660;2023-05-14T14:37:33;23.20;97.60
75321;DHT22;68337;52.196;5.660;2023-05-14T14:39:59;23.30;99.90
75321;DHT22;68337;52.196;5.660;2023-05-14T14:42:25;23.50;99.90
75321;DHT22;68337;52.196;5.660;2023-05-14T14:44:50;23.90;99.90
75321;DHT22;68337;52.196;5.660;2023-05-14T14:47:16;24.20;99.90
75321;DHT22;68337;52.196;5.660;2023-05-14T14:49:41;24.20;94.60
75321;DHT22;68337;52.196;5.660;2023-05-14T14:52:07;24.40;94.50
75321;DHT22;68337;52.196;5.660;2023-05-14T14:54:33;24.20;96.50
75321;DHT22;68337;52.196;5.660;2023-05-14T14:56:58;24.20;98.80
75321;DHT22;68337;52.196;5.660;2023-05-14T14:59:24;23.90;79.30
75321;DHT22;68337;52.196;5.660;2023-05-14T15:01:50;23.70;90.70
75321;DHT22;68337;52.196;5.660;2023-05-14T15:04:16;23.70;94.40
75321;DHT22;68337;52.196;5.660;2023-05-14T15:06:41;23.80;96.80
75321;DHT22;68337;52.196;5.660;2023-05-14T15:09:07;24.00;99.00
75321;DHT22;68337;52.196;5.660;2023-05-14T15:11:33;23.70;97.00
75321;DHT22;68337;52.196;5.660;2023-05-14T15:13:59;23.60;97.20
75321;DHT22;68337;52.196;5.660;2023-05-14T15:16:24;23.40;99.30
75321;DHT22;68337;52.196;5.660;2023-05-14T15:18:50;23.40;99.00
75321;DHT22;68337;52.196;5.660;2023-05-14T15:21:16;23.70;98.60
75321;DHT22;68337;52.196;5.660;2023-05-14T15:23:41;23.50;91.30
75321;DHT22;68337;52.196;5.660;2023-05-14T15:26:07;23.30;93.00
75321;DHT22;68337;52.196;5.660;2023-05-14T15:28:32;23.20;96.40
75321;DHT22;68337;52.196;5.660;2023-05-14T15:30:58;23.30;99.30
75321;DHT22;68337;52.196;5.660;2023-05-14T15:33:24;23.50;99.90